Time;durP1;ratioP1;P1;durP2;ratioP2;P2;SDS_P1;SDS_P2;PMS_P1;PMS_P2;Temp;Humidity;BMP_temperature;BMP_pressure;BME280_temperature;BME280_humidity;BME280_pressure;Samples;Min_cycle;Max_cycle;Signal;HPM_P1;HPM_P2
2021/12/15 00:01:26;;;;;;;27.07;19.03;;;-1.30;99.90;;;;;;5036270;28;20174;-75
2021/12/15 00:03:52;;;;;;;28.27;17.87;;;-1.00;99.90;;;;;;5037513;28;20174;-70
2021/12/15 00:06:19;;;;;;;23.80;17.53;;;-1.90;99.90;;;;;;5037480;28;20221;-76
2021/12/15 00:08:51;;;;;;;29.53;19.90;;;-1.60;99.90;;;;;;5036406;28;20195;-71
2021/12/15 00:11:18;;;;;;;29.50;19.37;;;-2.00;99.90;;;;;;5037355;28;20250;-76
2021/12/15 00:13:46;;;;;;;27.70;18.80;;;-2.00;99.90;;;;;;5036264;28;20235;-74
2021/12/15 00:16:14;;;;;;;29.17;18.87;;;-2.00;99.90;;;;;;5037056;28;20303;-73
2021/12/15 00:18:41;;;;;;;28.27;19.70;;;-1.80;99.90;;;;;;5037328;28;20241;-77
2021/12/15 00:21:11;;;;;;;28.93;18.97;;;-1.80;99.90;;;;;;5037302;28;20166;-76
2021/12/15 00:23:37;;;;;;;28.23;19.47;;;-1.60;99.90;;;;;;5037056;28;20178;-76
2021/12/15 00:26:03;;;;;;;29.93;19.50;;;-1.80;99.90;;;;;;5037130;28;20195;-76
2021/12/15 00:28:29;;;;;;;28.63;19.67;;;-1.70;99.90;;;;;;5037166;28;20571;-76
2021/12/15 00:30:55;;;;;;;31.80;19.03;;;-1.70;99.90;;;;;;5036731;28;20183;-76
2021/12/15 00:33:21;;;;;;;32.07;20.93;;;-2.00;99.90;;;;;;5037060;28;20181;-77
2021/12/15 00:35:48;;;;;;;29.43;19.30;;;-1.50;99.90;;;;;;5036816;28;20188;-77
2021/12/15 00:38:14;;;;;;;32.60;18.80;;;-1.50;99.90;;;;;;5036953;28;20305;-73
2021/12/15 00:40:40;;;;;;;28.93;18.10;;;-1.70;99.90;;;;;;5036821;28;20518;-76
2021/12/15 00:43:06;;;;;;;34.10;21.93;;;-1.60;99.90;;;;;;5035881;28;20186;-73
2021/12/15 00:45:32;;;;;;;34.83;20.83;;;-1.70;99.90;;;;;;5035259;28;20170;-73
2021/12/15 00:47:58;;;;;;;29.13;20.17;;;-1.30;99.90;;;;;;5036795;28;20285;-68
2021/12/15 00:50:29;;;;;;;36.17;21.40;;;-1.40;99.90;;;;;;5036428;28;20276;-69
2021/12/15 00:52:56;;;;;;;28.87;20.90;;;-1.70;99.90;;;;;;5036441;28;20207;-76
2021/12/15 00:55:28;;;;;;;32.97;20.47;;;-1.40;99.90;;;;;;5035815;28;20477;-69
2021/12/15 00:57:54;;;;;;;31.47;19.70;;;-1.30;99.90;;;;;;5036120;28;20201;-68
2021/12/15 01:00:24;;;;;;;30.87;22.30;;;-1.20;99.90;;;;;;5036494;28;20176;-69
2021/12/15 01:02:51;;;;;;;39.60;23.23;;;-1.10;99.90;;;;;;5036377;28;20168;-73
2021/12/15 01:05:19;;;;;;;36.07;21.33;;;-1.20;99.90;;;;;;5036445;28;20188;-73
2021/12/15 01:07:47;;;;;;;32.10;20.60;;;-1.30;99.90;;;;;;5036293;28;20181;-76
2021/12/15 01:10:17;;;;;;;35.20;23.30;;;-1.40;99.90;;;;;;5036303;28;20162;-75
2021/12/15 01:21:16;;;;;;;32.50;19.67;;;-1.30;99.90;;;;;;5036258;28;20179;-72
2021/12/15 01:23:42;;;;;;;37.63;23.27;;;-1.30;99.90;;;;;;5036297;28;20171;-73
2021/12/15 01:26:13;;;;;;;33.07;21.27;;;-0.90;99.90;;;;;;5035996;28;20229;-75
2021/12/15 01:28:40;;;;;;;34.93;22.90;;;-0.60;99.90;;;;;;5034882;28;20227;-72
2021/12/15 01:31:07;;;;;;;33.70;20.73;;;-0.50;99.90;;;;;;5035972;28;20172;-73
2021/12/15 01:33:34;;;;;;;33.77;20.57;;;-0.70;99.90;;;;;;5035939;28;20254;-76
2021/12/15 01:36:03;;;;;;;38.07;22.87;;;-0.80;99.90;;;;;;5035954;28;20190;-75
2021/12/15 01:38:31;;;;;;;38.70;23.40;;;-0.40;99.90;;;;;;5035647;28;20261;-69
2021/12/15 01:40:59;;;;;;;33.77;21.13;;;-0.80;99.90;;;;;;5035911;28;20174;-76
2021/12/15 01:49:30;;;;;;;42.67;25.50;;;-2.20;99.90;;;;;;5035832;28;20487;-68
2021/12/15 01:51:59;;;;;;;37.83;22.27;;;-1.90;99.90;;;;;;5035760;28;20265;-70
2021/12/15 01:54:28;;;;;;;41.63;24.40;;;-1.90;99.90;;;;;;5035647;28;20190;-69
2021/12/15 01:56:53;;;;;;;36.67;22.93;;;-1.40;99.90;;;;;;5034442;28;20273;-71
2021/12/15 01:59:22;;;;;;;33.07;22.50;;;-2.10;99.90;;;;;;5034508;28;20207;-71
2021/12/15 02:01:49;;;;;;;35.10;21.97;;;-2.10;99.90;;;;;;5035440;28;20180;-68
2021/12/15 02:04:16;;;;;;;38.90;25.33;;;-2.00;99.90;;;;;;5035721;28;20174;-69
2021/12/15 02:06:44;;;;;;;37.77;24.27;;;-2.10;99.90;;;;;;5036658;28;20249;-74
2021/12/15 02:09:15;;;;;;;35.63;24.07;;;-2.10;99.90;;;;;;5038601;28;20182;-69
2021/12/15 02:11:41;;;;;;;37.77;23.10;;;-1.90;99.90;;;;;;5039388;28;20269;-73
2021/12/15 02:14:07;;;;;;;42.30;23.17;;;-2.00;99.90;;;;;;5039462;28;20177;-71
2021/12/15 02:16:33;;;;;;;42.50;24.67;;;-1.50;99.90;;;;;;5038571;28;20174;-73
2021/12/15 02:18:59;;;;;;;36.37;22.83;;;-1.60;99.90;;;;;;5039417;28;20591;-71
2021/12/15 02:21:25;;;;;;;35.33;23.30;;;-1.60;99.90;;;;;;5039481;28;20189;-73
2021/12/15 02:23:56;;;;;;;40.70;24.63;;;-1.80;99.90;;;;;;5039581;28;20483;-73
2021/12/15 02:26:35;;;;;;;41.80;25.23;;;-1.40;99.90;;;;;;5039118;28;20188;-71
2021/12/15 02:29:06;;;;;;;34.07;21.10;;;-1.50;99.90;;;;;;5039403;28;20175;-76
2021/12/15 02:39:19;;;;;;;37.60;23.33;;;-1.40;99.90;;;;;;5038849;28;20237;-75
2021/12/15 02:41:46;;;;;;;41.83;26.80;;;-1.00;99.90;;;;;;5039210;28;20175;-76
2021/12/15 02:44:16;;;;;;;41.27;23.60;;;-1.00;99.90;;;;;;5038842;28;20178;-76
2021/12/15 02:46:45;;;;;;;37.63;23.03;;;-1.10;99.90;;;;;;5039136;28;20625;-75
2021/12/15 02:49:14;;;;;;;42.50;24.53;;;-1.20;99.90;;;;;;5038848;28;20233;-76
2021/12/15 02:51:42;;;;;;;33.57;19.70;;;-1.30;99.90;;;;;;5037922;28;20273;-73
2021/12/15 02:54:12;;;;;;;39.23;24.00;;;-0.90;99.90;;;;;;5038363;28;20474;-75
2021/12/15 02:56:39;;;;;;;38.57;24.20;;;-1.00;99.90;;;;;;5038852;28;20196;-72
2021/12/15 02:59:07;;;;;;;35.67;23.87;;;-1.10;99.90;;;;;;5038629;28;20396;-75
2021/12/15 03:07:16;;;;;;;32.87;20.67;;;-1.10;99.90;;;;;;5038608;28;20174;-75
2021/12/15 03:17:51;;;;;;;36.23;20.93;;;-0.60;99.90;;;;;;5038192;28;20198;-74
2021/12/15 03:20:18;;;;;;;33.93;21.23;;;-0.80;99.90;;;;;;5037992;28;20168;-71
2021/12/15 03:22:44;;;;;;;28.23;19.33;;;-0.60;99.90;;;;;;5038282;28;20171;-74
2021/12/15 03:25:11;;;;;;;32.47;19.37;;;-0.90;99.90;;;;;;5036824;28;20180;-76
2021/12/15 03:36:04;;;;;;;28.60;16.93;;;-0.50;99.90;;;;;;5037915;28;20187;-75
2021/12/15 03:38:30;;;;;;;25.47;18.13;;;-0.30;99.90;;;;;;5037731;28;20248;-76
2021/12/15 03:40:57;;;;;;;30.17;20.07;;;-0.40;99.90;;;;;;5037950;28;20176;-75
2021/12/15 03:43:23;;;;;;;26.17;17.77;;;-0.50;99.90;;;;;;5038033;28;20221;-77
2021/12/15 03:45:53;;;;;;;25.63;16.27;;;-0.50;99.90;;;;;;5037863;28;20168;-77
2021/12/15 03:48:23;;;;;;;25.63;17.37;;;-0.60;99.90;;;;;;5037970;28;20174;-77
2021/12/15 03:50:50;;;;;;;32.67;16.77;;;-0.20;99.90;;;;;;5037829;28;20190;-76
2021/12/15 03:53:16;;;;;;;26.43;17.27;;;-0.60;99.90;;;;;;5037446;28;20170;-72
2021/12/15 03:55:42;;;;;;;25.87;16.43;;;-0.50;99.90;;;;;;5037698;28;20682;-76
2021/12/15 03:58:12;;;;;;;27.53;17.97;;;-0.90;99.90;;;;;;5037606;28;20222;-77
2021/12/15 04:00:47;;;;;;;26.57;17.40;;;-0.60;99.90;;;;;;5037672;28;20167;-75
2021/12/15 04:03:23;;;;;;;26.77;17.57;;;-0.60;99.90;;;;;;5037623;28;20169;-75
2021/12/15 04:05:49;;;;;;;23.63;16.27;;;-0.60;99.90;;;;;;5037412;28;20215;-76
2021/12/15 04:08:15;;;;;;;21.07;15.27;;;-0.70;99.90;;;;;;5037362;28;20206;-76
2021/12/15 04:10:41;;;;;;;26.10;16.77;;;-1.10;99.90;;;;;;5037535;28;20589;-76
2021/12/15 04:13:09;;;;;;;25.10;17.70;;;-0.70;99.90;;;;;;5037541;28;20172;-77
2021/12/15 04:15:42;;;;;;;28.67;17.83;;;-0.60;99.90;;;;;;5037353;28;20166;-75
2021/12/15 04:18:09;;;;;;;31.17;20.03;;;-0.90;99.90;;;;;;5037346;28;20215;-74
2021/12/15 04:20:36;;;;;;;29.57;18.03;;;-1.00;99.90;;;;;;5037477;28;20188;-76
2021/12/15 04:23:05;;;;;;;28.57;19.33;;;-0.80;99.90;;;;;;5036821;28;20230;-76
2021/12/15 04:25:35;;;;;;;30.13;19.23;;;-0.90;99.90;;;;;;5037087;28;20170;-74
2021/12/15 04:28:04;;;;;;;29.97;19.77;;;-0.80;99.90;;;;;;5036134;28;20183;-77
2021/12/15 04:30:33;;;;;;;36.73;19.93;;;-0.70;99.90;;;;;;5035813;28;20174;-76
2021/12/15 04:33:07;;;;;;;29.63;19.23;;;-0.90;99.90;;;;;;5037107;28;20177;-76
2021/12/15 04:35:34;;;;;;;34.17;20.70;;;-0.80;99.90;;;;;;5036553;28;20255;-70
2021/12/15 04:38:00;;;;;;;35.70;21.47;;;-0.70;99.90;;;;;;5037023;28;20222;-71
2021/12/15 04:40:26;;;;;;;32.53;20.73;;;-0.90;99.90;;;;;;5036665;28;20256;-75
2021/12/15 04:42:52;;;;;;;31.80;21.53;;;-0.80;99.90;;;;;;5036818;28;20218;-75
2021/12/15 04:45:19;;;;;;;33.27;21.27;;;-0.70;99.90;;;;;;5036724;28;20544;-76
2021/12/15 04:47:50;;;;;;;31.17;19.30;;;-0.70;99.90;;;;;;5036730;28;20179;-71
2021/12/15 04:50:17;;;;;;;43.87;26.13;;;-0.40;99.90;;;;;;5036265;28;20590;-74
2021/12/15 04:52:43;;;;;;;30.77;21.07;;;-0.40;99.90;;;;;;5036442;28;20216;-70
2021/12/15 04:55:10;;;;;;;30.03;19.57;;;-0.40;99.90;;;;;;5036684;28;20583;-71
2021/12/15 04:57:35;;;;;;;35.27;22.23;;;-0.50;99.90;;;;;;5035325;28;20174;-76
2021/12/15 05:00:04;;;;;;;34.93;23.87;;;-0.40;99.90;;;;;;5036466;28;20167;-69
2021/12/15 05:02:31;;;;;;;34.20;22.87;;;-0.40;99.90;;;;;;5034998;28;20196;-70
2021/12/15 05:04:58;;;;;;;33.20;21.50;;;-0.40;99.90;;;;;;5035249;28;20476;-69
2021/12/15 05:07:24;;;;;;;36.40;21.13;;;-0.60;99.90;;;;;;5036311;28;20582;-68
2021/12/15 05:09:50;;;;;;;36.83;23.47;;;-0.30;99.90;;;;;;5036525;28;20187;-72
2021/12/15 05:12:19;;;;;;;35.83;23.17;;;-0.40;99.90;;;;;;5036233;28;20615;-76
2021/12/15 05:14:45;;;;;;;41.43;25.63;;;-0.20;99.90;;;;;;5035228;28;20169;-70
2021/12/15 05:17:11;;;;;;;36.17;26.40;;;-0.30;99.90;;;;;;5036196;28;20173;-71
2021/12/15 05:19:37;;;;;;;32.07;21.67;;;-0.60;99.90;;;;;;5035960;28;20230;-74
2021/12/15 05:22:05;;;;;;;33.83;21.83;;;-0.70;99.90;;;;;;5035048;28;20253;-76
2021/12/15 05:24:30;;;;;;;36.23;23.47;;;-0.50;99.90;;;;;;5036258;28;20196;-77
2021/12/15 05:27:10;;;;;;;32.10;19.60;;;-0.50;99.90;;;;;;5035957;28;20203;-71
2021/12/15 05:29:38;;;;;;;32.27;21.90;;;-0.40;99.90;;;;;;5036125;28;20166;-75
2021/12/15 05:32:04;;;;;;;40.30;25.70;;;-0.30;99.90;;;;;;5035887;28;20174;-70
2021/12/15 05:34:31;;;;;;;32.13;22.30;;;-0.40;99.90;;;;;;5035734;28;20173;-68
2021/12/15 05:36:57;;;;;;;29.77;20.87;;;-0.30;99.90;;;;;;5035733;28;20195;-74
2021/12/15 05:39:25;;;;;;;32.00;21.40;;;-0.20;99.90;;;;;;5034792;28;20198;-74
2021/12/15 05:41:52;;;;;;;32.97;22.50;;;0.00;99.90;;;;;;5035382;28;20222;-75
2021/12/15 05:44:18;;;;;;;29.63;20.77;;;-0.30;99.90;;;;;;5035754;28;20195;-69
2021/12/15 05:46:44;;;;;;;31.10;20.97;;;-0.10;99.90;;;;;;5035776;28;20175;-73
2021/12/15 05:49:10;;;;;;;27.80;18.67;;;-0.30;99.90;;;;;;5035456;28;20508;-73
2021/12/15 05:51:37;;;;;;;28.60;21.47;;;-0.60;99.90;;;;;;5034546;28;20204;-74
2021/12/15 05:54:05;;;;;;;32.97;19.47;;;-0.90;99.90;;;;;;5035826;28;20195;-72
2021/12/15 05:56:31;;;;;;;29.73;18.77;;;-1.20;99.90;;;;;;5035760;28;20174;-73
2021/12/15 05:58:56;;;;;;;25.60;18.07;;;-0.80;99.90;;;;;;5035552;28;20199;-71
2021/12/15 06:01:22;;;;;;;27.10;17.57;;;-0.80;99.90;;;;;;5035765;28;20249;-74
2021/12/15 06:03:48;;;;;;;25.00;18.33;;;-0.60;99.90;;;;;;5035210;28;20184;-71
2021/12/15 06:06:14;;;;;;;29.43;16.53;;;-0.40;99.90;;;;;;5035650;28;20190;-74
2021/12/15 06:08:40;;;;;;;27.83;19.93;;;-0.60;99.90;;;;;;5034505;28;20181;-73
2021/12/15 06:11:06;;;;;;;28.53;19.17;;;-0.40;99.90;;;;;;5035394;28;20176;-73
2021/12/15 06:13:32;;;;;;;32.60;20.60;;;-0.40;99.90;;;;;;5035533;28;20204;-72
2021/12/15 06:16:00;;;;;;;23.93;17.60;;;-0.90;99.90;;;;;;5035473;28;20195;-74
2021/12/15 06:18:27;;;;;;;28.20;18.17;;;-0.80;99.90;;;;;;5035235;28;20287;-68
2021/12/15 06:20:54;;;;;;;27.87;19.77;;;-1.00;99.90;;;;;;5034510;28;20170;-70
2021/12/15 06:23:22;;;;;;;35.20;22.87;;;-0.60;99.90;;;;;;5035131;28;20183;-73
2021/12/15 06:25:52;;;;;;;32.33;21.73;;;-0.90;99.90;;;;;;5035502;28;20168;-76
2021/12/15 06:28:18;;;;;;;32.60;20.90;;;-1.00;99.90;;;;;;5035458;28;20198;-76
2021/12/15 06:30:45;;;;;;;30.57;20.40;;;-1.00;99.90;;;;;;5035662;28;20253;-77
2021/12/15 06:33:12;;;;;;;36.53;21.43;;;-0.80;99.90;;;;;;5035058;28;20182;-76
2021/12/15 06:35:38;;;;;;;32.70;21.17;;;-0.30;99.90;;;;;;5035257;28;20516;-77
2021/12/15 06:38:05;;;;;;;28.90;20.10;;;-0.80;99.90;;;;;;5035219;28;20209;-77
2021/12/15 06:40:32;;;;;;;31.20;20.33;;;-0.70;99.90;;;;;;5035432;28;20306;-70
2021/12/15 06:42:57;;;;;;;32.87;23.30;;;-1.00;99.90;;;;;;5035325;28;20201;-74
2021/12/15 06:45:31;;;;;;;31.63;20.90;;;-0.70;99.90;;;;;;5035393;28;20179;-71
2021/12/15 06:58:54;;;;;;;31.57;21.47;;;-0.40;99.90;;;;;;5038771;28;20254;-77
2021/12/15 07:01:20;;;;;;;34.07;23.43;;;-0.50;99.90;;;;;;5037437;28;20171;-76
2021/12/15 07:03:46;;;;;;;30.40;20.27;;;-0.30;99.90;;;;;;5038545;28;20204;-73
2021/12/15 07:06:12;;;;;;;24.67;18.00;;;-0.30;99.90;;;;;;5038627;28;20172;-74
2021/12/15 07:08:38;;;;;;;29.13;18.20;;;-0.70;99.90;;;;;;5038580;28;20172;-71
2021/12/15 07:11:05;;;;;;;25.70;18.03;;;-1.10;99.90;;;;;;5037515;28;20616;-75
2021/12/15 07:13:31;;;;;;;27.97;18.20;;;-1.00;99.90;;;;;;5038431;28;21018;-73
2021/12/15 07:16:04;;;;;;;21.53;17.43;;;-1.10;99.90;;;;;;5038324;28;20186;-71
2021/12/15 07:18:44;;;;;;;25.27;18.67;;;-1.20;99.90;;;;;;5038137;28;20560;-77
2021/12/15 07:21:21;;;;;;;24.73;17.63;;;-1.00;99.90;;;;;;5037763;28;20441;-72
2021/12/15 07:23:47;;;;;;;28.20;20.40;;;-1.00;99.90;;;;;;5037219;28;20186;-80
2021/12/15 07:26:14;;;;;;;35.03;22.97;;;-1.10;99.90;;;;;;5038303;28;20261;-75
2021/12/15 07:28:40;;;;;;;26.60;19.03;;;-0.90;99.90;;;;;;5038401;28;20175;-75
2021/12/15 07:31:07;;;;;;;35.63;21.90;;;-0.70;99.90;;;;;;5037285;28;20186;-80
2021/12/15 07:33:38;;;;;;;36.80;23.40;;;-1.20;99.90;;;;;;5039182;28;20239;-80
2021/12/15 07:36:05;;;;;;;34.17;22.53;;;-1.10;99.90;;;;;;5038081;28;20206;-73
2021/12/15 07:38:31;;;;;;;35.13;20.73;;;-1.40;99.90;;;;;;5036945;28;20234;-77
2021/12/15 07:40:57;;;;;;;32.77;22.30;;;-0.80;99.90;;;;;;5036833;28;20172;-78
2021/12/15 07:43:24;;;;;;;36.10;22.80;;;-1.10;99.90;;;;;;5038036;28;20641;-73
2021/12/15 07:46:02;;;;;;;34.23;21.37;;;-1.30;99.90;;;;;;5037694;28;20272;-69
2021/12/15 07:48:34;;;;;;;37.20;22.33;;;-1.70;99.90;;;;;;5037897;28;20168;-74
2021/12/15 07:51:02;;;;;;;31.97;23.03;;;-1.20;99.90;;;;;;5037757;28;20184;-70
2021/12/15 07:53:28;;;;;;;37.37;22.90;;;-1.00;99.90;;;;;;5037791;28;20187;-70
2021/12/15 07:55:55;;;;;;;30.97;22.50;;;-0.70;99.90;;;;;;5037748;28;20185;-68
2021/12/15 07:58:23;;;;;;;30.93;20.20;;;-0.60;99.90;;;;;;5037496;28;20196;-73
2021/12/15 08:00:51;;;;;;;32.47;18.77;;;-0.40;99.90;;;;;;5037632;28;20164;-69
2021/12/15 08:03:17;;;;;;;30.47;21.50;;;-0.70;99.90;;;;;;5029497;28;20201;-68
2021/12/15 08:05:50;;;;;;;28.43;19.50;;;-1.10;99.90;;;;;;5031522;28;20566;-73
2021/12/15 08:08:16;;;;;;;32.13;20.27;;;-0.90;99.90;;;;;;5035879;28;20187;-82
2021/12/15 08:10:43;;;;;;;38.43;22.27;;;-0.70;99.90;;;;;;5037490;28;20635;-82
2021/12/15 08:13:11;;;;;;;29.30;19.43;;;-0.70;99.90;;;;;;5036704;28;20577;-81
2021/12/15 08:15:38;;;;;;;28.00;19.90;;;-0.60;99.90;;;;;;5034975;28;20169;-82
2021/12/15 08:18:04;;;;;;;37.73;21.63;;;-0.60;99.90;;;;;;5033924;28;20297;-75
2021/12/15 08:20:32;;;;;;;35.47;22.70;;;-0.40;99.90;;;;;;5036791;28;20247;-79
2021/12/15 08:22:58;;;;;;;34.30;21.70;;;-0.50;99.90;;;;;;5035709;28;20183;-81
2021/12/15 08:25:24;;;;;;;33.83;21.87;;;-0.30;99.90;;;;;;5036750;28;20618;-82
2021/12/15 08:27:51;;;;;;;31.53;19.50;;;-0.40;99.90;;;;;;5035683;28;20174;-80
2021/12/15 08:30:21;;;;;;;33.90;22.27;;;-0.80;99.90;;;;;;5036955;28;20560;-72
2021/12/15 08:32:49;;;;;;;30.50;21.23;;;-0.80;99.90;;;;;;5028561;28;20183;-71
2021/12/15 08:35:17;;;;;;;39.07;22.57;;;-0.60;99.90;;;;;;5021203;28;20491;-72
2021/12/15 08:37:56;;;;;;;29.47;19.83;;;-0.10;99.90;;;;;;5036778;28;20155;-78
2021/12/15 08:40:32;;;;;;;26.57;19.53;;;-0.30;99.90;;;;;;5036921;28;20257;-74
2021/12/15 08:43:07;;;;;;;34.30;22.87;;;-0.70;99.90;;;;;;5036506;28;20171;-81
2021/12/15 08:45:36;;;;;;;30.07;20.60;;;-0.70;99.90;;;;;;5036654;28;20174;-77
2021/12/15 08:48:06;;;;;;;30.03;21.27;;;-0.50;99.90;;;;;;5036757;28;20174;-80
2021/12/15 08:50:35;;;;;;;31.93;20.43;;;-0.70;99.90;;;;;;5036527;28;20187;-78
2021/12/15 08:53:02;;;;;;;31.50;20.50;;;-0.50;99.90;;;;;;5036205;28;20177;-72
2021/12/15 08:55:28;;;;;;;31.37;20.83;;;-0.40;99.90;;;;;;5036665;28;20540;-69
2021/12/15 08:57:57;;;;;;;29.00;21.63;;;0.00;99.90;;;;;;5035167;28;20566;-68
2021/12/15 09:00:24;;;;;;;33.77;21.47;;;-0.20;99.90;;;;;;5036535;28;20176;-68
2021/12/15 09:02:51;;;;;;;35.50;22.67;;;-0.70;99.90;;;;;;5029700;28;20182;-67
2021/12/15 09:05:20;;;;;;;30.80;21.43;;;-1.00;99.90;;;;;;5036108;28;20166;-68
2021/12/15 09:07:52;;;;;;;32.27;22.57;;;-1.10;99.90;;;;;;5036054;28;20177;-69
2021/12/15 09:10:21;;;;;;;32.03;20.57;;;-0.60;99.90;;;;;;5035655;28;20186;-69
2021/12/15 09:12:47;;;;;;;30.23;22.47;;;-0.30;99.90;;;;;;5035560;28;20177;-68
2021/12/15 09:15:14;;;;;;;34.27;21.93;;;-0.20;99.90;;;;;;5036024;28;20473;-72
2021/12/15 09:17:43;;;;;;;29.03;20.40;;;0.00;99.90;;;;;;5035443;28;20194;-68
2021/12/15 09:20:15;;;;;;;28.23;20.47;;;0.10;99.90;;;;;;5036063;28;20157;-69
2021/12/15 09:22:42;;;;;;;38.67;22.83;;;-0.50;99.90;;;;;;5035597;28;20459;-67
2021/12/15 09:25:09;;;;;;;29.50;20.90;;;-0.40;99.90;;;;;;5035433;28;20182;-67
2021/12/15 09:27:38;;;;;;;26.70;20.47;;;-0.30;99.90;;;;;;5034486;28;20175;-67
2021/12/15 09:30:09;;;;;;;30.60;21.77;;;-0.70;99.90;;;;;;5035483;28;20179;-68
2021/12/15 09:32:35;;;;;;;35.03;24.07;;;-1.60;99.90;;;;;;5025487;28;20224;-68
2021/12/15 09:35:03;;;;;;;33.50;23.40;;;-1.50;99.90;;;;;;5033867;28;20293;-68
2021/12/15 09:37:29;;;;;;;30.97;22.13;;;-1.10;99.90;;;;;;5035470;28;20593;-69
2021/12/15 09:40:06;;;;;;;29.73;22.90;;;-0.90;99.90;;;;;;5029263;28;20207;-67
2021/12/15 09:42:36;;;;;;;35.20;23.83;;;-0.70;99.90;;;;;;5032844;28;20179;-71
2021/12/15 09:45:31;;;;;;;31.93;21.63;;;-0.40;99.90;;;;;;5035444;28;20166;-67
2021/12/15 09:56:19;;;;;;;32.53;22.57;;;-0.60;99.90;;;;;;5035289;28;20183;-69
2021/12/15 10:17:22;;;;;;;35.60;21.67;;;-1.30;99.90;;;;;;5015887;28;20167;-75
2021/12/15 10:18:11;;;;;;;31.03;20.53;;;-1.50;99.90;;;;;;5015977;28;20215;-70
2021/12/15 10:20:37;;;;;;;40.37;23.33;;;-0.90;99.90;;;;;;5014871;28;20223;-72
2021/12/15 10:23:07;;;;;;;39.67;26.40;;;-1.60;99.90;;;;;;5016883;28;20167;-73
2021/12/15 10:25:43;;;;;;;31.40;22.13;;;-1.20;99.90;;;;;;5015540;28;20214;-72
2021/12/15 10:28:08;;;;;;;49.43;22.83;;;-1.30;99.90;;;;;;5016263;28;20484;-76
2021/12/15 10:30:40;;;;;;;37.77;25.53;;;-0.80;99.90;;;;;;5020824;28;20181;-69
2021/12/15 10:33:15;;;;;;;40.77;23.13;;;-1.00;99.90;;;;;;5020969;28;20308;-70
2021/12/15 10:36:02;;;;;;;29.37;21.20;;;-0.70;99.90;;;;;;5028885;28;20271;-74
2021/12/15 10:38:30;;;;;;;32.60;21.40;;;-0.60;99.90;;;;;;5040153;28;20192;-69
2021/12/15 10:41:18;;;;;;;34.47;19.03;;;-0.70;99.90;;;;;;5027500;28;20269;-70
2021/12/15 10:43:59;;;;;;;31.47;21.60;;;-1.00;99.90;;;;;;5037839;28;20193;-81
2021/12/15 10:46:31;;;;;;;35.37;23.63;;;-1.00;99.90;;;;;;5039138;28;20194;-79
2021/12/15 10:49:11;;;;;;;39.07;21.27;;;-0.90;99.90;;;;;;5038608;28;20176;-70
2021/12/15 10:52:03;;;;;;;29.57;20.23;;;-0.90;99.90;;;;;;5038635;28;20196;-70
2021/12/15 10:54:34;;;;;;;26.17;19.60;;;-0.90;99.90;;;;;;5038968;28;20184;-70
2021/12/15 10:57:34;;;;;;;29.23;20.97;;;-0.80;99.90;;;;;;5038570;28;20172;-71
2021/12/15 11:00:06;;;;;;;32.40;19.43;;;-1.00;99.90;;;;;;5037511;28;20298;-72
2021/12/15 11:02:36;;;;;;;28.37;21.43;;;-0.80;99.90;;;;;;5038516;28;20170;-82
2021/12/15 11:05:14;;;;;;;31.17;21.70;;;-0.40;99.90;;;;;;5038637;28;20174;-78
2021/12/15 11:07:42;;;;;;;28.30;21.27;;;-0.60;99.90;;;;;;5038433;28;20160;-73
2021/12/15 11:10:31;;;;;;;29.83;19.07;;;-0.30;99.90;;;;;;5031204;28;20188;-77
2021/12/15 11:13:09;;;;;;;26.97;20.67;;;0.60;99.90;;;;;;5019102;28;20164;-78
2021/12/15 11:15:43;;;;;;;27.27;20.27;;;-1.00;99.90;;;;;;5018852;28;20208;-77
2021/12/15 11:18:39;;;;;;;22.70;18.70;;;-1.20;99.90;;;;;;5017729;28;20241;-72
2021/12/15 11:21:08;;;;;;;29.33;21.40;;;-1.00;99.90;;;;;;5026690;28;20189;-74
2021/12/15 11:23:36;;;;;;;28.27;20.37;;;-1.10;99.90;;;;;;5017905;28;20202;-75
2021/12/15 11:26:05;;;;;;;25.47;17.90;;;-1.50;99.90;;;;;;5023536;28;20255;-73
2021/12/15 11:28:34;;;;;;;25.33;18.53;;;-1.70;99.90;;;;;;5023326;28;20606;-73
2021/12/15 11:31:28;;;;;;;28.43;18.20;;;-1.90;99.90;;;;;;5027110;28;20258;-76
2021/12/15 11:34:00;;;;;;;22.30;19.80;;;-1.80;99.90;;;;;;5017797;28;20591;-71
2021/12/15 11:36:36;;;;;;;26.97;20.67;;;-1.60;99.90;;;;;;5023470;28;20702;-70
2021/12/15 11:39:09;;;;;;;22.97;18.10;;;-1.40;99.90;;;;;;5025868;28;20241;-73
2021/12/15 11:41:36;;;;;;;20.40;17.83;;;-1.80;99.90;;;;;;5025630;28;20172;-76
2021/12/15 11:44:11;;;;;;;27.97;19.93;;;-1.70;99.90;;;;;;5028601;28;20204;-72
2021/12/15 11:46:54;;;;;;;24.67;18.23;;;-1.50;99.90;;;;;;5018567;28;20631;-81
2021/12/15 11:49:23;;;;;;;29.40;20.57;;;-1.00;99.90;;;;;;5017502;28;20222;-72
2021/12/15 11:52:03;;;;;;;22.57;18.60;;;-1.20;99.90;;;;;;5017627;28;20226;-83
2021/12/15 11:54:32;;;;;;;25.87;20.07;;;-1.70;99.90;;;;;;5020519;28;20214;-82
2021/12/15 11:57:05;;;;;;;27.90;20.67;;;-2.10;99.90;;;;;;5017027;28;20212;-83
2021/12/15 11:59:37;;;;;;;28.63;21.63;;;-1.90;99.90;;;;;;5020499;28;20204;-84
2021/12/15 12:02:21;;;;;;;26.63;20.43;;;-1.80;99.90;;;;;;5018849;28;20177;-79
2021/12/15 12:04:51;;;;;;;27.50;19.40;;;-2.60;99.90;;;;;;5027306;28;20179;-83
2021/12/15 12:07:28;;;;;;;26.37;20.50;;;-2.30;99.90;;;;;;5042715;28;20187;-84
2021/12/15 12:10:01;;;;;;;24.53;19.70;;;-2.20;99.90;;;;;;5044901;28;20179;-85
2021/12/15 12:12:35;;;;;;;23.80;18.83;;;-2.20;99.90;;;;;;5042551;28;20202;-81
2021/12/15 12:15:03;;;;;;;31.53;22.10;;;-1.60;99.90;;;;;;5045349;28;20171;-80
2021/12/15 12:17:35;;;;;;;26.40;19.83;;;-2.10;99.90;;;;;;5040175;28;20561;-84
2021/12/15 12:20:03;;;;;;;24.37;20.23;;;-1.90;99.90;;;;;;5037321;28;20200;-70
2021/12/15 12:22:33;;;;;;;26.17;19.63;;;-1.50;99.90;;;;;;5037385;28;20203;-71
2021/12/15 12:25:02;;;;;;;28.70;21.70;;;-2.00;99.90;;;;;;5036490;28;20184;-68
2021/12/15 12:27:30;;;;;;;24.60;19.23;;;-1.80;99.90;;;;;;5036930;28;20175;-68
2021/12/15 12:29:59;;;;;;;25.40;18.07;;;-1.40;99.90;;;;;;5036999;28;20161;-69
2021/12/15 12:32:25;;;;;;;28.13;21.83;;;-1.80;99.90;;;;;;5035838;28;20172;-71
2021/12/15 12:34:53;;;;;;;27.80;20.00;;;-2.00;99.90;;;;;;5036694;28;20165;-77
2021/12/15 12:37:20;;;;;;;25.40;20.10;;;-2.40;99.90;;;;;;5036846;28;20169;-81
2021/12/15 12:39:53;;;;;;;26.10;20.37;;;-2.30;99.90;;;;;;5036216;28;20307;-70
2021/12/15 12:42:41;;;;;;;25.37;20.07;;;-3.40;99.90;;;;;;5036476;28;20171;-75
2021/12/15 12:45:34;;;;;;;30.83;21.57;;;-2.40;99.90;;;;;;5036770;28;20237;-74
2021/12/15 12:59:43;;;;;;;28.57;20.50;;;-0.80;99.90;;;;;;5036379;28;20208;-73
2021/12/15 13:02:42;;;;;;;29.60;21.30;;;-0.60;99.90;;;;;;5036111;28;20163;-73
2021/12/15 13:05:49;;;;;;;27.27;20.23;;;-1.60;99.90;;;;;;5035979;28;20234;-80
2021/12/15 13:08:34;;;;;;;27.33;20.47;;;-0.80;99.90;;;;;;5034872;28;20180;-78
2021/12/15 13:11:23;;;;;;;27.17;19.57;;;-0.50;99.90;;;;;;5022956;28;20272;-73
2021/12/15 13:14:16;;;;;;;26.20;20.13;;;-0.60;99.90;;;;;;5016385;28;20251;-73
2021/12/15 13:16:55;;;;;;;32.77;22.17;;;-1.20;99.90;;;;;;5033558;28;20594;-80
2021/12/15 13:19:25;;;;;;;26.43;20.70;;;-0.80;99.90;;;;;;5034627;28;20690;-74
2021/12/15 13:30:47;;;;;;;27.40;20.47;;;-1.00;99.90;;;;;;5035761;28;20167;-76
2021/12/15 13:33:39;;;;;;;30.63;21.97;;;-0.40;99.90;;;;;;5035614;28;20205;-72
2021/12/15 13:36:20;;;;;;;28.20;22.07;;;-0.30;99.90;;;;;;5035716;28;20279;-71
2021/12/15 13:39:07;;;;;;;27.73;22.00;;;-0.70;99.90;;;;;;5035483;28;20200;-71
2021/12/15 13:41:40;;;;;;;24.63;20.70;;;-0.20;99.90;;;;;;5024939;28;20187;-75
2021/12/15 13:44:20;;;;;;;30.80;22.03;;;-0.40;99.90;;;;;;5035183;28;20169;-68
2021/12/15 13:46:55;;;;;;;23.33;20.60;;;-2.10;99.90;;;;;;5035458;28;20167;-69
2021/12/15 13:49:46;;;;;;;29.83;21.47;;;-2.40;99.90;;;;;;5033616;28;20188;-70
2021/12/15 13:52:28;;;;;;;31.87;20.77;;;-2.50;99.90;;;;;;5035074;28;20180;-75
2021/12/15 13:55:21;;;;;;;25.87;20.27;;;-1.80;99.90;;;;;;5034698;28;20188;-71
2021/12/15 13:57:49;;;;;;;27.57;20.23;;;-1.80;99.90;;;;;;5033853;28;20501;-78
2021/12/15 14:00:27;;;;;;;27.23;20.67;;;-2.00;99.90;;;;;;5035533;28;20168;-79
2021/12/15 14:02:55;;;;;;;28.47;22.83;;;-2.10;99.90;;;;;;5037548;28;20165;-77
2021/12/15 14:05:28;;;;;;;34.20;23.03;;;-0.90;99.90;;;;;;5042029;28;20203;-72
2021/12/15 14:08:06;;;;;;;31.63;23.13;;;-0.70;99.90;;;;;;5041788;28;20629;-78
2021/12/15 14:10:32;;;;;;;28.37;21.13;;;-1.00;99.90;;;;;;5032805;28;20487;-77
2021/12/15 14:13:02;;;;;;;29.93;23.00;;;-0.50;99.90;;;;;;5029505;28;20179;-76
2021/12/15 14:15:37;;;;;;;30.73;22.03;;;-0.80;99.90;;;;;;5039447;28;20190;-78
2021/12/15 14:18:13;;;;;;;28.90;21.17;;;-0.80;99.90;;;;;;5041387;28;20605;-72
2021/12/15 14:20:46;;;;;;;33.00;21.40;;;-1.50;99.90;;;;;;5041784;28;20229;-83
2021/12/15 14:23:16;;;;;;;29.37;22.33;;;-0.50;99.90;;;;;;5040752;28;20266;-75
2021/12/15 14:25:42;;;;;;;27.00;21.80;;;-0.90;99.90;;;;;;5041215;28;20234;-70